createdAt,value
2018-08-13T00:00:59.295Z,1.30
2018-08-13T00:03:27.778Z,1.47
2018-08-13T00:05:57.310Z,1.17
2018-08-13T00:08:25.827Z,1.10
2018-08-13T00:10:54.250Z,1.20
2018-08-13T00:13:22.779Z,1.37
2018-08-13T00:15:51.581Z,1.20
2018-08-13T00:18:20.036Z,1.40
2018-08-13T00:20:48.647Z,1.53
2018-08-13T00:23:17.268Z,1.20
2018-08-13T00:25:45.751Z,1.20
2018-08-13T00:28:14.382Z,1.53
2018-08-13T00:30:42.922Z,1.10
2018-08-13T00:33:12.152Z,1.40
2018-08-13T00:35:40.747Z,1.20
2018-08-13T00:38:09.561Z,1.30
2018-08-13T00:40:38.072Z,1.50
2018-08-13T00:43:07.038Z,1.30
2018-08-13T00:45:35.586Z,1.00
2018-08-13T00:48:04.063Z,1.50
2018-08-13T00:50:32.552Z,1.53
2018-08-13T00:53:00.991Z,1.50
2018-08-13T00:55:29.515Z,1.83
2018-08-13T00:57:58.007Z,1.37
2018-08-13T01:00:26.676Z,1.87
2018-08-13T01:02:55.245Z,2.37
2018-08-13T01:05:23.719Z,2.27
2018-08-13T01:07:52.479Z,1.50
2018-08-13T01:10:22.098Z,1.23
2018-08-13T01:12:50.624Z,1.50
2018-08-13T01:15:20.295Z,1.70
2018-08-13T01:17:49.926Z,1.57
2018-08-13T01:20:19.587Z,1.20
2018-08-13T01:22:48.184Z,1.63
2018-08-13T01:25:19.002Z,1.40
2018-08-13T01:27:47.559Z,1.30
2018-08-13T01:30:17.763Z,2.00
2018-08-13T01:32:46.735Z,1.37
2018-08-13T01:35:15.231Z,1.50
2018-08-13T01:37:43.795Z,1.50
2018-08-13T01:40:12.889Z,1.40
2018-08-13T01:42:41.327Z,1.37
2018-08-13T01:45:11.300Z,1.20
2018-08-13T01:47:40.663Z,1.63
2018-08-13T01:50:10.849Z,1.50
2018-08-13T01:52:39.327Z,1.50
2018-08-13T01:55:09.203Z,1.70
2018-08-13T01:57:37.735Z,1.67
2018-08-13T02:00:09.605Z,1.73
2018-08-13T02:02:38.140Z,1.90
2018-08-13T02:05:07.017Z,1.47
2018-08-13T02:07:35.660Z,1.87
2018-08-13T02:10:04.332Z,1.60
2018-08-13T02:12:32.822Z,1.60
2018-08-13T02:15:01.410Z,1.90
2018-08-13T02:17:29.956Z,1.70
2018-08-13T02:19:58.448Z,1.87
2018-08-13T02:22:27.035Z,1.50
2018-08-13T02:24:55.595Z,1.13
2018-08-13T02:27:24.059Z,1.57
2018-08-13T02:29:52.939Z,1.47
2018-08-13T02:32:21.493Z,1.57
2018-08-13T02:34:49.891Z,1.70
2018-08-13T02:37:18.500Z,1.93
2018-08-13T02:39:46.999Z,1.90
2018-08-13T02:42:15.567Z,1.67
2018-08-13T02:44:44.043Z,1.97
2018-08-13T02:47:12.552Z,1.10
2018-08-13T02:49:41.032Z,1.80
2018-08-13T02:52:09.447Z,1.80
2018-08-13T02:54:37.994Z,1.60
2018-08-13T02:57:07.211Z,1.93
2018-08-13T02:59:35.811Z,1.30
2018-08-13T03:02:04.531Z,1.67
2018-08-13T03:04:33.037Z,1.50
2018-08-13T03:07:01.531Z,1.30
2018-08-13T03:09:29.987Z,1.90
2018-08-13T03:11:58.496Z,1.67
2018-08-13T03:14:27.039Z,1.10
2018-08-13T03:16:55.503Z,1.20
2018-08-13T03:19:23.989Z,1.97
2018-08-13T03:21:52.423Z,1.53
2018-08-13T03:24:20.971Z,2.30
2018-08-13T03:26:49.363Z,1.70
2018-08-13T03:29:18.018Z,1.70
2018-08-13T03:31:46.539Z,1.47
2018-08-13T03:34:15.075Z,1.93
2018-08-13T03:36:43.523Z,1.97
2018-08-13T03:39:13.504Z,1.57
2018-08-13T03:41:43.031Z,1.57
2018-08-13T03:44:12.307Z,1.60
2018-08-13T03:46:40.747Z,1.60
2018-08-13T03:49:10.894Z,1.70
2018-08-13T03:51:39.519Z,1.77
2018-08-13T03:54:07.959Z,1.50
2018-08-13T03:56:36.555Z,1.30
2018-08-13T03:59:05.099Z,1.80
2018-08-13T04:01:33.623Z,1.50
2018-08-13T04:04:02.260Z,1.80
2018-08-13T04:06:30.707Z,1.80
2018-08-13T04:08:59.287Z,1.67
2018-08-13T04:11:27.930Z,1.50
2018-08-13T04:13:56.408Z,1.90
2018-08-13T04:16:24.935Z,1.50
2018-08-13T04:18:53.559Z,2.80
2018-08-13T04:21:22.096Z,1.67
2018-08-13T04:23:50.519Z,1.50
2018-08-13T04:26:18.976Z,1.33
2018-08-13T04:28:47.415Z,1.43
2018-08-13T04:31:15.915Z,2.07
2018-08-13T04:33:44.679Z,2.30
2018-08-13T04:36:13.124Z,2.33
2018-08-13T04:38:41.607Z,1.50
2018-08-13T04:41:10.235Z,2.10
2018-08-13T04:43:38.781Z,1.80
2018-08-13T04:46:07.603Z,1.93
2018-08-13T04:48:36.082Z,1.30
2018-08-13T04:51:04.634Z,1.70
2018-08-13T04:53:33.108Z,1.50
2018-08-13T04:56:01.607Z,2.07
2018-08-13T04:58:30.103Z,1.80
2018-08-13T05:00:58.581Z,1.50
2018-08-13T05:03:27.071Z,2.43
2018-08-13T05:05:55.611Z,1.80
2018-08-13T05:08:24.087Z,1.40
2018-08-13T05:10:52.593Z,1.90
2018-08-13T05:13:21.071Z,1.40
2018-08-13T05:15:49.527Z,1.80
2018-08-13T05:18:18.058Z,1.63
2018-08-13T05:20:46.551Z,1.17
2018-08-13T05:23:15.019Z,1.50
2018-08-13T05:25:43.903Z,2.73
2018-08-13T05:28:12.322Z,1.93
2018-08-13T05:30:40.831Z,2.00
2018-08-13T05:33:09.515Z,1.70
2018-08-13T05:35:37.939Z,1.60
2018-08-13T05:38:06.570Z,2.20
2018-08-13T05:40:35.003Z,2.73
2018-08-13T05:43:03.479Z,2.77
2018-08-13T05:45:31.987Z,3.77
2018-08-13T05:48:00.745Z,2.10
2018-08-13T05:50:29.296Z,1.87
2018-08-13T05:52:57.722Z,2.57
2018-08-13T05:55:26.744Z,2.30
2018-08-13T05:57:55.173Z,2.07
2018-08-13T06:00:23.663Z,2.20
2018-08-13T06:02:52.179Z,1.63
2018-08-13T06:05:20.659Z,2.50
2018-08-13T06:07:49.140Z,2.53
2018-08-13T06:10:17.818Z,2.67
2018-08-13T06:12:46.306Z,3.27
2018-08-13T06:15:14.848Z,2.50
2018-08-13T06:17:43.428Z,2.60
2018-08-13T06:20:13.012Z,3.17
2018-08-13T06:22:42.583Z,2.10
2018-08-13T06:25:11.928Z,3.43
2018-08-13T06:27:40.410Z,2.77
2018-08-13T06:30:14.628Z,3.67
2018-08-13T06:32:43.291Z,2.77
2018-08-13T06:35:12.935Z,2.87
2018-08-13T06:37:42.260Z,3.30
2018-08-13T06:40:10.775Z,4.10
2018-08-13T06:42:39.859Z,3.80
2018-08-13T06:45:09.610Z,3.30
2018-08-13T06:47:39.059Z,3.30
2018-08-13T06:50:09.587Z,3.30
2018-08-13T06:52:38.213Z,4.40
2018-08-13T06:55:06.911Z,5.13
2018-08-13T06:57:36.103Z,4.27
2018-08-13T07:00:06.922Z,3.10
2018-08-13T07:02:35.460Z,3.73
2018-08-13T07:05:04.399Z,3.77
2018-08-13T07:07:32.883Z,3.10
2018-08-13T07:10:01.770Z,3.37
2018-08-13T07:12:30.228Z,3.30
2018-08-13T07:14:58.749Z,3.67
2018-08-13T07:17:27.194Z,3.73
2018-08-13T07:19:55.747Z,3.33
2018-08-13T07:22:24.328Z,3.47
2018-08-13T07:24:52.739Z,3.60
2018-08-13T07:27:21.211Z,3.20
2018-08-13T07:29:49.833Z,3.40
2018-08-13T07:32:18.690Z,4.10
2018-08-13T07:34:47.325Z,3.37
2018-08-13T07:37:15.770Z,4.20
2018-08-13T07:39:44.319Z,4.00
2018-08-13T07:42:12.827Z,2.00
2018-08-13T07:44:41.244Z,3.00
2018-08-13T07:47:09.811Z,3.80
2018-08-13T07:49:38.297Z,4.00
2018-08-13T07:52:06.801Z,4.57
2018-08-13T07:54:35.387Z,4.60
2018-08-13T07:57:03.880Z,4.57
2018-08-13T07:59:32.369Z,4.07
2018-08-13T08:02:01.533Z,3.60
2018-08-13T08:04:29.970Z,3.50
2018-08-13T08:06:58.587Z,4.87
2018-08-13T08:09:27.533Z,3.77
2018-08-13T08:11:55.991Z,4.17
2018-08-13T08:14:24.420Z,4.20
2018-08-13T08:16:52.863Z,2.80
2018-08-13T08:19:21.266Z,3.70
2018-08-13T08:21:49.736Z,3.43
2018-08-13T08:24:18.394Z,4.90
2018-08-13T08:26:46.820Z,3.80
2018-08-13T08:29:15.288Z,3.80
2018-08-13T08:31:43.759Z,4.40
2018-08-13T08:34:12.724Z,4.43
2018-08-13T08:36:41.194Z,4.43
2018-08-13T08:39:13.337Z,3.70
2018-08-13T08:41:42.067Z,5.10
2018-08-13T08:44:11.219Z,4.63
2018-08-13T08:46:40.719Z,4.37
2018-08-13T08:49:09.235Z,4.67
2018-08-13T08:51:39.215Z,4.70
2018-08-13T08:54:08.383Z,4.57
2018-08-13T08:56:37.055Z,3.70
2018-08-13T08:59:07.069Z,4.43
2018-08-13T09:01:35.820Z,4.33
2018-08-13T09:04:04.827Z,4.57
2018-08-13T09:06:33.214Z,4.40
2018-08-13T09:09:01.704Z,5.47
2018-08-13T09:11:30.191Z,4.80
2018-08-13T09:13:58.711Z,6.33
2018-08-13T09:16:27.207Z,5.30
2018-08-13T09:19:06.922Z,4.50
2018-08-13T09:21:36.892Z,6.50
2018-08-13T09:24:17.229Z,6.30
2018-08-13T09:26:56.942Z,5.53
2018-08-13T09:29:36.504Z,6.20
2018-08-13T09:33:13.987Z,6.60
2018-08-13T09:35:42.436Z,6.00
2018-08-13T09:38:11.360Z,6.33
2018-08-13T09:40:40.030Z,5.00
2018-08-13T09:43:08.566Z,5.67
2018-08-13T09:45:37.143Z,5.60
2018-08-13T09:48:06.390Z,6.03
2018-08-13T09:50:35.081Z,5.77
2018-08-13T09:53:03.585Z,5.80
2018-08-13T09:55:32.157Z,7.17
2018-08-13T09:58:00.682Z,5.00
2018-08-13T10:00:34.602Z,4.50
2018-08-13T10:03:03.110Z,4.93
2018-08-13T10:05:31.563Z,5.70
2018-08-13T10:08:00.352Z,5.53
2018-08-13T10:10:28.908Z,5.37
2018-08-13T10:12:57.412Z,5.20
2018-08-13T10:15:25.882Z,4.83
2018-08-13T10:17:54.400Z,7.57
2018-08-13T10:20:22.925Z,5.33
2018-08-13T10:22:51.549Z,6.03
2018-08-13T10:25:20.190Z,6.23
2018-08-13T10:27:48.665Z,6.60
2018-08-13T10:30:17.895Z,6.90
2018-08-13T10:32:46.786Z,7.30
2018-08-13T10:35:15.292Z,6.10
2018-08-13T10:37:43.823Z,6.10
2018-08-13T10:40:15.371Z,6.00
2018-08-13T10:42:43.806Z,6.77
2018-08-13T10:45:12.453Z,5.40
2018-08-13T10:47:40.914Z,5.17
2018-08-13T10:50:11.224Z,6.10
2018-08-13T10:52:40.729Z,4.40
2018-08-13T10:55:10.364Z,5.10
2018-08-13T10:57:38.848Z,3.50
2018-08-13T11:00:09.764Z,3.03
2018-08-13T11:02:38.517Z,3.83
2018-08-13T11:05:08.624Z,3.40
2018-08-13T11:07:37.143Z,3.87
2018-08-13T11:10:07.642Z,3.37
2018-08-13T11:12:36.535Z,4.10
2018-08-13T11:15:08.347Z,4.30
2018-08-13T11:17:36.883Z,3.97
2018-08-13T11:20:06.022Z,3.10
2018-08-13T11:22:34.599Z,3.90
2018-08-13T11:25:03.102Z,3.00
2018-08-13T11:27:31.559Z,3.13
2018-08-13T11:30:00.359Z,2.47
2018-08-13T11:32:28.838Z,2.03
2018-08-13T11:34:57.541Z,2.60
2018-08-13T11:37:26.109Z,3.23
2018-08-13T11:39:54.658Z,2.43
2018-08-13T11:42:23.123Z,2.90
2018-08-13T11:44:51.679Z,2.10
2018-08-13T11:47:20.163Z,2.87
2018-08-13T11:49:48.747Z,2.40
2018-08-13T11:52:17.267Z,2.33
2018-08-13T11:54:45.721Z,2.37
2018-08-13T11:57:14.235Z,2.33
2018-08-13T11:59:42.937Z,2.63
2018-08-13T12:02:11.464Z,2.20
2018-08-13T12:04:39.823Z,2.20
2018-08-13T12:07:08.412Z,1.90
2018-08-13T12:09:36.915Z,1.73
2018-08-13T12:12:05.603Z,2.23
2018-08-13T12:14:34.351Z,2.13
2018-08-13T12:17:03.180Z,1.70
2018-08-13T12:19:31.826Z,2.20
2018-08-13T12:22:00.351Z,1.43
2018-08-13T12:24:28.784Z,1.83
2018-08-13T12:26:57.371Z,1.60
2018-08-13T12:29:26.007Z,2.30
2018-08-13T12:31:54.491Z,1.80
2018-08-13T12:34:22.972Z,1.37
2018-08-13T12:36:55.811Z,1.80
2018-08-13T12:39:24.320Z,2.20
2018-08-13T12:41:52.671Z,1.57
2018-08-13T12:44:21.298Z,2.40
2018-08-13T12:46:49.744Z,2.10
2018-08-13T12:49:18.275Z,2.20
2018-08-13T12:51:47.186Z,2.03
2018-08-13T12:54:15.695Z,1.90
2018-08-13T12:56:44.135Z,1.70
2018-08-13T12:59:12.889Z,2.57
2018-08-13T13:01:41.322Z,1.60
2018-08-13T13:04:09.732Z,1.97
2018-08-13T13:06:38.229Z,2.27
2018-08-13T13:09:09.191Z,1.90
2018-08-13T13:11:38.123Z,1.60
2018-08-13T13:14:09.965Z,1.93
2018-08-13T13:16:38.754Z,1.70
2018-08-13T13:19:07.677Z,2.00
2018-08-13T13:21:36.151Z,1.40
2018-08-13T13:24:05.497Z,1.73
2018-08-13T13:26:34.463Z,1.83
2018-08-13T13:29:02.971Z,1.30
2018-08-13T13:31:31.388Z,2.10
2018-08-13T13:33:59.799Z,1.73
2018-08-13T13:36:28.331Z,2.10
2018-08-13T13:38:57.101Z,1.43
2018-08-13T13:41:25.627Z,1.47
2018-08-13T13:43:54.131Z,2.17
2018-08-13T13:46:22.909Z,2.07
2018-08-13T13:48:51.772Z,1.83
2018-08-13T13:51:20.283Z,1.70
2018-08-13T13:53:49.176Z,1.40
2018-08-13T13:56:17.799Z,1.17
2018-08-13T13:58:46.319Z,1.80
2018-08-13T14:01:14.816Z,2.33
2018-08-13T14:03:43.296Z,1.40
2018-08-13T14:06:11.776Z,1.23
2018-08-13T14:08:40.443Z,1.77
2018-08-13T14:11:09.089Z,2.50
2018-08-13T14:13:37.483Z,2.40
2018-08-13T14:16:06.019Z,3.90
2018-08-13T14:18:34.476Z,2.67
2018-08-13T14:21:03.066Z,1.77
2018-08-13T14:23:31.914Z,2.23
2018-08-13T14:26:00.355Z,1.90
2018-08-13T14:28:28.823Z,1.40
2018-08-13T14:30:57.491Z,1.60
2018-08-13T14:33:25.851Z,1.80
2018-08-13T14:35:54.286Z,1.60
2018-08-13T14:38:22.975Z,1.30
2018-08-13T14:40:51.428Z,1.60
2018-08-13T14:43:19.932Z,1.30
2018-08-13T14:45:48.568Z,1.40
2018-08-13T14:48:17.001Z,1.23
2018-08-13T14:50:45.400Z,1.50
2018-08-13T14:53:14.043Z,1.47
2018-08-13T14:55:42.579Z,1.73
2018-08-13T14:58:12.875Z,1.83
2018-08-13T15:00:41.780Z,1.43
2018-08-13T15:03:12.366Z,1.60
2018-08-13T15:05:41.642Z,1.67
2018-08-13T15:08:10.222Z,1.27
2018-08-13T15:10:38.789Z,1.50
2018-08-13T15:13:07.313Z,1.40
2018-08-13T15:15:35.735Z,1.33
2018-08-13T15:18:04.296Z,1.27
2018-08-13T15:20:33.423Z,1.20
2018-08-13T15:23:01.912Z,1.30
2018-08-13T15:25:30.441Z,0.90
2018-08-13T15:27:58.963Z,1.20
2018-08-13T15:30:27.888Z,1.60
2018-08-13T15:32:56.267Z,1.73
2018-08-13T15:35:25.207Z,1.10
2018-08-13T15:37:53.654Z,1.27
2018-08-13T15:40:22.139Z,1.17
2018-08-13T15:42:50.663Z,1.43
2018-08-13T15:45:21.549Z,1.70
2018-08-13T15:47:50.508Z,1.53
2018-08-13T15:50:20.139Z,1.07
2018-08-13T15:52:49.259Z,1.67
2018-08-13T15:55:17.847Z,0.70
2018-08-13T15:57:46.727Z,0.63
2018-08-13T16:00:18.771Z,0.60
2018-08-13T16:02:47.827Z,0.80
2018-08-13T16:05:16.415Z,0.50
2018-08-13T16:07:45.243Z,0.50
2018-08-13T16:10:15.331Z,0.50
2018-08-13T16:12:44.140Z,0.70
2018-08-13T16:15:13.131Z,0.40
2018-08-13T16:17:42.003Z,0.90
2018-08-13T16:20:15.795Z,0.50
2018-08-13T16:22:45.292Z,0.43
2018-08-13T16:25:14.009Z,0.47
2018-08-13T16:27:42.880Z,0.60
2018-08-13T16:30:18.495Z,0.50
2018-08-13T16:32:48.140Z,0.60
2018-08-13T16:35:17.179Z,0.60
2018-08-13T16:37:46.132Z,0.70
2018-08-13T16:40:15.331Z,0.70
2018-08-13T16:42:43.874Z,0.50
2018-08-13T16:45:13.595Z,0.50
2018-08-13T16:47:42.359Z,0.50
2018-08-13T16:50:23.426Z,0.80
2018-08-13T16:52:52.215Z,0.70
2018-08-13T16:55:20.697Z,0.73
2018-08-13T16:57:49.252Z,0.50
2018-08-13T17:00:23.843Z,0.50
2018-08-13T17:02:52.633Z,1.37
2018-08-13T17:05:21.324Z,0.77
2018-08-13T17:07:50.088Z,0.50
2018-08-13T17:10:20.902Z,0.50
2018-08-13T17:12:50.327Z,0.60
2018-08-13T17:15:18.927Z,0.50
2018-08-13T17:17:51.879Z,0.60
2018-08-13T17:20:25.464Z,0.60
2018-08-13T17:22:54.386Z,0.70
2018-08-13T17:25:23.791Z,0.70
2018-08-13T17:27:52.395Z,0.50
2018-08-13T17:30:23.080Z,0.50
2018-08-13T17:32:52.715Z,0.70
2018-08-13T17:35:23.667Z,0.60
2018-08-13T17:37:52.163Z,1.50
2018-08-13T17:40:22.327Z,0.60
2018-08-13T17:42:51.476Z,0.50
2018-08-13T17:45:19.888Z,0.47
2018-08-13T17:47:48.394Z,0.60
2018-08-13T17:50:18.611Z,0.70
2018-08-13T17:52:47.176Z,0.70
2018-08-13T17:55:16.495Z,0.50
2018-08-13T17:57:45.457Z,0.50
2018-08-13T18:00:18.462Z,0.57
2018-08-13T18:02:47.081Z,0.50
2018-08-13T18:05:17.945Z,0.60
2018-08-13T18:07:47.220Z,0.60
2018-08-13T18:10:22.939Z,0.50
2018-08-13T18:12:53.106Z,1.00
2018-08-13T18:15:21.873Z,1.03
2018-08-13T18:17:50.581Z,0.50
2018-08-13T18:20:19.522Z,0.90
2018-08-13T18:22:48.466Z,1.13
2018-08-13T18:25:17.485Z,1.33
2018-08-13T18:27:47.611Z,0.63
2018-08-13T18:30:18.259Z,0.70
2018-08-13T18:32:47.197Z,0.60
2018-08-13T18:35:17.025Z,0.60
2018-08-13T18:37:45.898Z,0.50
2018-08-13T18:40:17.821Z,0.80
2018-08-13T18:42:47.864Z,0.60
2018-08-13T18:45:18.549Z,0.80
2018-08-13T18:47:48.593Z,0.80
2018-08-13T18:50:18.966Z,0.60
2018-08-13T18:52:48.112Z,0.60
2018-08-13T18:55:18.217Z,0.70
2018-08-13T18:57:47.809Z,1.07
2018-08-13T19:00:18.710Z,0.73
2018-08-13T19:02:47.787Z,0.63
2018-08-13T19:05:19.098Z,1.00
2018-08-13T19:07:48.452Z,0.70
2018-08-13T19:10:19.933Z,0.67
2018-08-13T19:12:49.088Z,0.50
2018-08-13T19:15:23.238Z,0.90
2018-08-13T19:17:54.470Z,0.70
2018-08-13T19:20:24.690Z,1.00
2018-08-13T19:22:55.239Z,0.70
2018-08-13T19:25:26.355Z,0.70
2018-08-13T19:27:55.482Z,0.70
2018-08-13T19:30:25.323Z,0.90
2018-08-13T19:32:55.013Z,0.80
2018-08-13T19:35:24.060Z,0.77
2018-08-13T19:37:53.465Z,0.80
2018-08-13T19:40:24.953Z,1.07
2018-08-13T19:42:54.575Z,0.70
2018-08-13T19:45:24.320Z,0.80
2018-08-13T19:47:54.621Z,1.80
2018-08-13T19:50:23.510Z,0.70
2018-08-13T19:52:53.042Z,1.00
2018-08-13T19:55:22.245Z,0.60
2018-08-13T19:57:52.119Z,0.90
2018-08-13T20:00:24.094Z,0.90
2018-08-13T20:02:53.408Z,0.90
2018-08-13T20:05:23.992Z,1.30
2018-08-13T20:07:53.717Z,1.10
2018-08-13T20:10:22.662Z,1.10
2018-08-13T20:12:51.742Z,1.20
2018-08-13T20:15:20.754Z,0.90
2018-08-13T20:17:49.810Z,1.03
2018-08-13T20:20:20.424Z,1.00
2018-08-13T20:22:49.849Z,1.20
2018-08-13T20:25:19.612Z,0.93
2018-08-13T20:27:49.264Z,1.50
2018-08-13T20:30:19.878Z,0.80
2018-08-13T20:32:49.890Z,0.87
2018-08-13T20:35:18.854Z,0.93
2018-08-13T20:37:47.579Z,1.20
2018-08-13T20:40:18.324Z,0.80
2018-08-13T20:42:47.674Z,0.90
2018-08-13T20:45:18.350Z,1.17
2018-08-13T20:47:47.340Z,1.07
2018-08-13T20:50:18.072Z,1.00
2018-08-13T20:52:47.483Z,0.73
2018-08-13T20:55:25.007Z,1.07
2018-08-13T20:57:53.531Z,0.80
2018-08-13T21:00:23.673Z,1.40
2018-08-13T21:02:52.258Z,1.10
2018-08-13T21:05:20.755Z,1.13
2018-08-13T21:07:49.875Z,0.93
2018-08-13T21:10:23.215Z,0.80
2018-08-13T21:12:51.943Z,0.70
2018-08-13T21:15:20.735Z,1.00
2018-08-13T21:17:49.313Z,1.03
2018-08-13T21:20:20.434Z,0.77
2018-08-13T21:22:48.955Z,0.83
2018-08-13T21:25:17.553Z,0.80
2018-08-13T21:27:46.327Z,0.80
2018-08-13T21:30:15.080Z,1.00
2018-08-13T21:32:44.450Z,1.10
2018-08-13T21:35:16.825Z,0.93
2018-08-13T21:37:45.594Z,0.80
2018-08-13T21:40:14.041Z,0.90
2018-08-13T21:42:42.660Z,0.80
2018-08-13T21:45:11.840Z,1.10
2018-08-13T21:47:40.831Z,1.20
2018-08-13T21:50:12.708Z,0.97
2018-08-13T21:52:41.327Z,1.07
2018-08-13T21:55:10.451Z,1.00
2018-08-13T21:57:38.980Z,0.67
2018-08-13T22:00:24.757Z,1.10
2018-08-13T22:02:53.631Z,0.83
2018-08-13T22:05:22.207Z,1.03
2018-08-13T22:07:50.696Z,0.80
2018-08-13T22:10:19.352Z,1.10
2018-08-13T22:12:47.982Z,1.37
2018-08-13T22:15:25.464Z,1.23
2018-08-13T22:17:55.226Z,1.00
2018-08-13T22:20:24.121Z,1.00
2018-08-13T22:22:52.763Z,0.90
2018-08-13T22:25:23.220Z,0.97
2018-08-13T22:27:51.768Z,0.70
2018-08-13T22:30:20.386Z,1.00
2018-08-13T22:32:48.859Z,1.00
2018-08-13T22:35:17.358Z,0.90
2018-08-13T22:37:45.791Z,1.20
2018-08-13T22:40:17.831Z,0.80
2018-08-13T22:42:46.750Z,1.07
2018-08-13T22:45:16.751Z,1.20
2018-08-13T22:47:45.383Z,0.97
2018-08-13T22:50:13.930Z,1.00
2018-08-13T22:52:42.422Z,1.00
2018-08-13T22:55:12.843Z,0.93
2018-08-13T22:57:41.379Z,0.97
2018-08-13T23:00:12.827Z,0.80
2018-08-13T23:02:41.784Z,0.70
2018-08-13T23:05:28.242Z,0.90
2018-08-13T23:07:56.755Z,0.73
2018-08-13T23:10:25.873Z,0.83
2018-08-13T23:12:56.005Z,1.03
2018-08-13T23:15:24.595Z,0.90
2018-08-13T23:17:53.751Z,1.23
2018-08-13T23:20:25.099Z,1.10
2018-08-13T23:22:59.584Z,1.23
2018-08-13T23:25:28.829Z,0.83
2018-08-13T23:27:58.550Z,1.17
2018-08-13T23:30:27.220Z,1.10
2018-08-13T23:32:56.579Z,0.70
2018-08-13T23:35:25.762Z,0.70
2018-08-13T23:37:54.559Z,1.10
2018-08-13T23:40:23.869Z,1.00
2018-08-13T23:42:52.320Z,2.10
2018-08-13T23:45:24.866Z,1.70
2018-08-13T23:47:53.355Z,1.17
2018-08-13T23:50:23.103Z,0.90
2018-08-13T23:52:53.005Z,1.00
2018-08-13T23:55:32.264Z,1.00
2018-08-13T23:58:01.223Z,0.97
